sensor_id;sensor_type;location;lat;lon;timestamp;P1;durP1;ratioP1;P2;durP2;ratioP2
5555;SDS011;2801;50.972;7.856;2022-09-09T00:01:54;10.43;;;2.15;;
5555;SDS011;2801;50.972;7.856;2022-09-09T00:05:04;4.05;;;1.90;;
5555;SDS011;2801;50.972;7.856;2022-09-09T00:08:14;7.75;;;1.95;;
5555;SDS011;2801;50.972;7.856;2022-09-09T00:10:57;8.13;;;1.88;;
5555;SDS011;2801;50.972;7.856;2022-09-09T00:16:15;8.68;;;2.05;;
5555;SDS011;2801;50.972;7.856;2022-09-09T00:21:38;6.10;;;1.98;;
5555;SDS011;2801;50.972;7.856;2022-09-09T00:24:22;5.97;;;2.20;;
5555;SDS011;2801;50.972;7.856;2022-09-09T00:26:57;14.45;;;2.08;;
5555;SDS011;2801;50.972;7.856;2022-09-09T00:32:44;5.40;;;2.28;;
5555;SDS011;2801;50.972;7.856;2022-09-09T00:35:16;7.00;;;2.38;;
5555;SDS011;2801;50.972;7.856;2022-09-09T00:37:56;8.02;;;2.05;;
5555;SDS011;2801;50.972;7.856;2022-09-09T00:48:20;9.20;;;2.42;;
5555;SDS011;2801;50.972;7.856;2022-09-09T00:51:25;9.45;;;2.33;;
5555;SDS011;2801;50.972;7.856;2022-09-09T00:54:08;7.30;;;2.25;;
5555;SDS011;2801;50.972;7.856;2022-09-09T00:59:52;12.13;;;2.83;;
5555;SDS011;2801;50.972;7.856;2022-09-09T01:05:50;7.03;;;2.20;;
5555;SDS011;2801;50.972;7.856;2022-09-09T01:08:55;10.45;;;2.28;;
5555;SDS011;2801;50.972;7.856;2022-09-09T01:14:52;5.50;;;2.10;;
5555;SDS011;2801;50.972;7.856;2022-09-09T01:17:37;5.88;;;2.63;;
5555;SDS011;2801;50.972;7.856;2022-09-09T01:20:29;10.98;;;2.33;;
5555;SDS011;2801;50.972;7.856;2022-09-09T01:26:32;7.40;;;2.30;;
5555;SDS011;2801;50.972;7.856;2022-09-09T01:29:09;8.20;;;2.22;;
5555;SDS011;2801;50.972;7.856;2022-09-09T01:31:51;10.13;;;2.47;;
5555;SDS011;2801;50.972;7.856;2022-09-09T01:34:21;7.13;;;2.63;;
5555;SDS011;2801;50.972;7.856;2022-09-09T01:37:05;10.75;;;2.30;;
5555;SDS011;2801;50.972;7.856;2022-09-09T01:39:36;8.07;;;2.40;;
5555;SDS011;2801;50.972;7.856;2022-09-09T01:42:08;4.65;;;2.28;;
5555;SDS011;2801;50.972;7.856;2022-09-09T01:44:39;8.90;;;2.45;;
5555;SDS011;2801;50.972;7.856;2022-09-09T01:47:06;8.60;;;2.50;;
5555;SDS011;2801;50.972;7.856;2022-09-09T01:49:34;6.47;;;1.90;;
5555;SDS011;2801;50.972;7.856;2022-09-09T01:52:01;9.77;;;2.42;;
5555;SDS011;2801;50.972;7.856;2022-09-09T01:54:29;8.93;;;2.63;;
5555;SDS011;2801;50.972;7.856;2022-09-09T02:02:18;9.23;;;2.28;;
5555;SDS011;2801;50.972;7.856;2022-09-09T02:05:08;7.63;;;2.38;;
5555;SDS011;2801;50.972;7.856;2022-09-09T02:08:09;10.98;;;2.67;;
5555;SDS011;2801;50.972;7.856;2022-09-09T02:10:54;8.05;;;2.58;;
5555;SDS011;2801;50.972;7.856;2022-09-09T02:13:31;5.50;;;2.50;;
5555;SDS011;2801;50.972;7.856;2022-09-09T02:16:24;9.35;;;2.67;;
5555;SDS011;2801;50.972;7.856;2022-09-09T02:19:15;8.68;;;2.78;;
5555;SDS011;2801;50.972;7.856;2022-09-09T02:21:53;7.40;;;2.78;;
5555;SDS011;2801;50.972;7.856;2022-09-09T02:24:23;7.80;;;2.60;;
5555;SDS011;2801;50.972;7.856;2022-09-09T02:26:53;7.50;;;2.60;;
5555;SDS011;2801;50.972;7.856;2022-09-09T02:29:33;6.97;;;2.45;;
5555;SDS011;2801;50.972;7.856;2022-09-09T02:32:06;7.25;;;2.47;;
5555;SDS011;2801;50.972;7.856;2022-09-09T02:34:42;11.40;;;2.80;;
5555;SDS011;2801;50.972;7.856;2022-09-09T02:37:15;9.07;;;3.00;;
5555;SDS011;2801;50.972;7.856;2022-09-09T02:39:48;13.18;;;2.45;;
5555;SDS011;2801;50.972;7.856;2022-09-09T02:42:15;10.13;;;2.50;;
5555;SDS011;2801;50.972;7.856;2022-09-09T02:44:43;7.95;;;2.50;;
5555;SDS011;2801;50.972;7.856;2022-09-09T02:50:12;10.65;;;2.72;;
5555;SDS011;2801;50.972;7.856;2022-09-09T02:55:48;7.88;;;2.17;;
5555;SDS011;2801;50.972;7.856;2022-09-09T02:58:35;9.18;;;2.60;;
5555;SDS011;2801;50.972;7.856;2022-09-09T03:01:03;7.88;;;2.20;;
5555;SDS011;2801;50.972;7.856;2022-09-09T03:03:30;7.07;;;2.63;;
5555;SDS011;2801;50.972;7.856;2022-09-09T03:05:58;6.13;;;2.45;;
5555;SDS011;2801;50.972;7.856;2022-09-09T03:08:25;7.72;;;2.13;;
5555;SDS011;2801;50.972;7.856;2022-09-09T03:10:54;6.30;;;2.50;;
5555;SDS011;2801;50.972;7.856;2022-09-09T03:13:21;13.00;;;2.75;;
5555;SDS011;2801;50.972;7.856;2022-09-09T03:15:48;8.30;;;2.20;;
5555;SDS011;2801;50.972;7.856;2022-09-09T03:18:14;9.10;;;2.60;;
5555;SDS011;2801;50.972;7.856;2022-09-09T03:20:41;9.45;;;2.00;;
5555;SDS011;2801;50.972;7.856;2022-09-09T03:23:09;10.63;;;2.30;;
5555;SDS011;2801;50.972;7.856;2022-09-09T03:25:46;7.25;;;2.45;;
5555;SDS011;2801;50.972;7.856;2022-09-09T03:28:14;10.93;;;2.95;;
5555;SDS011;2801;50.972;7.856;2022-09-09T03:30:41;8.52;;;2.70;;
5555;SDS011;2801;50.972;7.856;2022-09-09T03:33:08;9.93;;;2.47;;
5555;SDS011;2801;50.972;7.856;2022-09-09T03:35:35;4.40;;;2.33;;
5555;SDS011;2801;50.972;7.856;2022-09-09T03:38:02;12.50;;;2.67;;
5555;SDS011;2801;50.972;7.856;2022-09-09T03:40:29;11.77;;;2.88;;
5555;SDS011;2801;50.972;7.856;2022-09-09T03:42:57;12.38;;;3.10;;
5555;SDS011;2801;50.972;7.856;2022-09-09T03:45:23;11.88;;;2.97;;
5555;SDS011;2801;50.972;7.856;2022-09-09T03:47:50;6.50;;;2.70;;
5555;SDS011;2801;50.972;7.856;2022-09-09T03:50:17;10.10;;;2.70;;
5555;SDS011;2801;50.972;7.856;2022-09-09T03:52:44;8.60;;;2.60;;
5555;SDS011;2801;50.972;7.856;2022-09-09T03:55:13;10.38;;;2.75;;
5555;SDS011;2801;50.972;7.856;2022-09-09T03:57:39;14.02;;;2.85;;
5555;SDS011;2801;50.972;7.856;2022-09-09T04:00:07;7.05;;;2.72;;
5555;SDS011;2801;50.972;7.856;2022-09-09T04:02:35;9.15;;;3.10;;
5555;SDS011;2801;50.972;7.856;2022-09-09T04:05:01;9.00;;;2.67;;
5555;SDS011;2801;50.972;7.856;2022-09-09T04:07:28;9.68;;;2.85;;
5555;SDS011;2801;50.972;7.856;2022-09-09T04:09:55;12.77;;;3.25;;
5555;SDS011;2801;50.972;7.856;2022-09-09T04:12:23;8.40;;;2.90;;
5555;SDS011;2801;50.972;7.856;2022-09-09T04:14:49;9.65;;;2.90;;
5555;SDS011;2801;50.972;7.856;2022-09-09T04:17:16;11.73;;;3.03;;
5555;SDS011;2801;50.972;7.856;2022-09-09T04:19:43;10.52;;;3.03;;
5555;SDS011;2801;50.972;7.856;2022-09-09T04:22:10;10.18;;;3.10;;
5555;SDS011;2801;50.972;7.856;2022-09-09T04:24:37;7.90;;;3.17;;
5555;SDS011;2801;50.972;7.856;2022-09-09T04:27:04;7.53;;;2.90;;
5555;SDS011;2801;50.972;7.856;2022-09-09T04:29:30;12.50;;;3.33;;
5555;SDS011;2801;50.972;7.856;2022-09-09T04:31:57;7.55;;;3.03;;
5555;SDS011;2801;50.972;7.856;2022-09-09T04:34:24;10.75;;;3.50;;
5555;SDS011;2801;50.972;7.856;2022-09-09T04:36:51;8.80;;;3.30;;
5555;SDS011;2801;50.972;7.856;2022-09-09T04:39:18;11.38;;;3.50;;
5555;SDS011;2801;50.972;7.856;2022-09-09T04:41:45;9.32;;;3.60;;
5555;SDS011;2801;50.972;7.856;2022-09-09T04:44:13;12.80;;;3.60;;
5555;SDS011;2801;50.972;7.856;2022-09-09T04:46:40;8.52;;;3.30;;
5555;SDS011;2801;50.972;7.856;2022-09-09T04:49:07;11.57;;;3.58;;
5555;SDS011;2801;50.972;7.856;2022-09-09T04:51:40;10.13;;;3.65;;
5555;SDS011;2801;50.972;7.856;2022-09-09T04:54:06;6.88;;;3.42;;
5555;SDS011;2801;50.972;7.856;2022-09-09T04:56:33;13.98;;;3.33;;
5555;SDS011;2801;50.972;7.856;2022-09-09T04:59:00;9.18;;;2.95;;
5555;SDS011;2801;50.972;7.856;2022-09-09T05:01:28;11.93;;;2.83;;
5555;SDS011;2801;50.972;7.856;2022-09-09T05:03:55;10.50;;;3.08;;
5555;SDS011;2801;50.972;7.856;2022-09-09T05:06:22;11.07;;;3.03;;
5555;SDS011;2801;50.972;7.856;2022-09-09T05:08:50;12.75;;;2.97;;
5555;SDS011;2801;50.972;7.856;2022-09-09T05:11:20;13.73;;;3.40;;
5555;SDS011;2801;50.972;7.856;2022-09-09T05:13:50;15.48;;;3.85;;
5555;SDS011;2801;50.972;7.856;2022-09-09T05:16:18;10.23;;;3.22;;
5555;SDS011;2801;50.972;7.856;2022-09-09T05:18:46;14.23;;;3.55;;
5555;SDS011;2801;50.972;7.856;2022-09-09T05:21:14;9.15;;;3.13;;
5555;SDS011;2801;50.972;7.856;2022-09-09T05:23:46;10.65;;;3.38;;
5555;SDS011;2801;50.972;7.856;2022-09-09T05:26:14;12.82;;;3.72;;
5555;SDS011;2801;50.972;7.856;2022-09-09T05:28:43;12.68;;;3.30;;
5555;SDS011;2801;50.972;7.856;2022-09-09T05:31:11;10.65;;;3.30;;
5555;SDS011;2801;50.972;7.856;2022-09-09T05:33:42;13.30;;;3.47;;
5555;SDS011;2801;50.972;7.856;2022-09-09T05:36:13;11.25;;;3.40;;
5555;SDS011;2801;50.972;7.856;2022-09-09T05:38:44;9.55;;;3.20;;
5555;SDS011;2801;50.972;7.856;2022-09-09T05:41:11;11.20;;;3.70;;
5555;SDS011;2801;50.972;7.856;2022-09-09T05:43:41;14.05;;;4.07;;
5555;SDS011;2801;50.972;7.856;2022-09-09T05:46:11;12.40;;;3.78;;
5555;SDS011;2801;50.972;7.856;2022-09-09T05:48:46;11.90;;;3.80;;
5555;SDS011;2801;50.972;7.856;2022-09-09T05:51:15;10.25;;;3.15;;
5555;SDS011;2801;50.972;7.856;2022-09-09T05:53:54;9.60;;;3.10;;
5555;SDS011;2801;50.972;7.856;2022-09-09T05:56:25;9.32;;;3.13;;
5555;SDS011;2801;50.972;7.856;2022-09-09T05:58:55;12.10;;;3.95;;
5555;SDS011;2801;50.972;7.856;2022-09-09T06:01:24;14.02;;;3.70;;
5555;SDS011;2801;50.972;7.856;2022-09-09T06:03:53;11.48;;;3.72;;
5555;SDS011;2801;50.972;7.856;2022-09-09T06:06:21;10.90;;;3.55;;
5555;SDS011;2801;50.972;7.856;2022-09-09T06:08:55;8.82;;;3.50;;
5555;SDS011;2801;50.972;7.856;2022-09-09T06:11:28;14.07;;;4.00;;
5555;SDS011;2801;50.972;7.856;2022-09-09T06:14:02;8.45;;;3.10;;
5555;SDS011;2801;50.972;7.856;2022-09-09T06:16:30;11.55;;;3.33;;
5555;SDS011;2801;50.972;7.856;2022-09-09T06:18:59;8.98;;;3.30;;
5555;SDS011;2801;50.972;7.856;2022-09-09T06:21:27;7.60;;;3.28;;
5555;SDS011;2801;50.972;7.856;2022-09-09T06:23:57;10.45;;;3.10;;
5555;SDS011;2801;50.972;7.856;2022-09-09T06:26:30;10.23;;;3.40;;
5555;SDS011;2801;50.972;7.856;2022-09-09T06:28:59;7.35;;;3.22;;
5555;SDS011;2801;50.972;7.856;2022-09-09T06:31:30;10.23;;;3.75;;
5555;SDS011;2801;50.972;7.856;2022-09-09T06:34:00;11.25;;;3.40;;
5555;SDS011;2801;50.972;7.856;2022-09-09T06:36:29;8.80;;;3.22;;
5555;SDS011;2801;50.972;7.856;2022-09-09T06:38:58;7.43;;;3.45;;
5555;SDS011;2801;50.972;7.856;2022-09-09T06:41:27;8.98;;;3.25;;
5555;SDS011;2801;50.972;7.856;2022-09-09T06:43:56;8.60;;;3.28;;
5555;SDS011;2801;50.972;7.856;2022-09-09T06:46:24;7.50;;;2.60;;
5555;SDS011;2801;50.972;7.856;2022-09-09T06:48:54;7.13;;;2.90;;
5555;SDS011;2801;50.972;7.856;2022-09-09T06:51:23;9.68;;;2.88;;
5555;SDS011;2801;50.972;7.856;2022-09-09T06:53:54;11.50;;;3.05;;
5555;SDS011;2801;50.972;7.856;2022-09-09T06:56:28;7.13;;;2.92;;
5555;SDS011;2801;50.972;7.856;2022-09-09T06:58:57;13.20;;;3.15;;
5555;SDS011;2801;50.972;7.856;2022-09-09T07:01:30;10.43;;;3.10;;
5555;SDS011;2801;50.972;7.856;2022-09-09T07:04:00;10.75;;;3.10;;
5555;SDS011;2801;50.972;7.856;2022-09-09T07:06:31;9.02;;;2.90;;
5555;SDS011;2801;50.972;7.856;2022-09-09T07:09:01;7.63;;;2.72;;
5555;SDS011;2801;50.972;7.856;2022-09-09T07:11:37;6.97;;;2.63;;
5555;SDS011;2801;50.972;7.856;2022-09-09T07:14:10;7.97;;;2.50;;
5555;SDS011;2801;50.972;7.856;2022-09-09T07:16:40;11.38;;;2.85;;
5555;SDS011;2801;50.972;7.856;2022-09-09T07:19:08;9.27;;;2.70;;
5555;SDS011;2801;50.972;7.856;2022-09-09T07:21:37;9.23;;;2.53;;
5555;SDS011;2801;50.972;7.856;2022-09-09T07:24:04;5.22;;;2.25;;
5555;SDS011;2801;50.972;7.856;2022-09-09T07:26:33;8.30;;;2.50;;
5555;SDS011;2801;50.972;7.856;2022-09-09T07:29:00;6.05;;;2.50;;
5555;SDS011;2801;50.972;7.856;2022-09-09T07:31:29;7.70;;;2.30;;
5555;SDS011;2801;50.972;7.856;2022-09-09T07:34:03;4.70;;;1.90;;
5555;SDS011;2801;50.972;7.856;2022-09-09T07:36:31;7.95;;;2.00;;
5555;SDS011;2801;50.972;7.856;2022-09-09T07:39:08;6.50;;;1.80;;
5555;SDS011;2801;50.972;7.856;2022-09-09T07:41:44;6.82;;;2.47;;
5555;SDS011;2801;50.972;7.856;2022-09-09T07:44:15;3.20;;;1.90;;
5555;SDS011;2801;50.972;7.856;2022-09-09T07:46:47;7.75;;;1.92;;
5555;SDS011;2801;50.972;7.856;2022-09-09T07:49:14;7.40;;;1.83;;
5555;SDS011;2801;50.972;7.856;2022-09-09T07:51:43;5.15;;;1.73;;
5555;SDS011;2801;50.972;7.856;2022-09-09T07:54:13;6.45;;;1.58;;
5555;SDS011;2801;50.972;7.856;2022-09-09T07:56:42;4.68;;;1.48;;
5555;SDS011;2801;50.972;7.856;2022-09-09T07:59:09;4.07;;;1.20;;
5555;SDS011;2801;50.972;7.856;2022-09-09T08:01:38;7.40;;;1.50;;
5555;SDS011;2801;50.972;7.856;2022-09-09T08:04:12;5.40;;;1.85;;
5555;SDS011;2801;50.972;7.856;2022-09-09T08:06:44;3.75;;;1.33;;
5555;SDS011;2801;50.972;7.856;2022-09-09T08:09:21;5.07;;;1.35;;
5555;SDS011;2801;50.972;7.856;2022-09-09T08:11:55;6.28;;;1.20;;
5555;SDS011;2801;50.972;7.856;2022-09-09T08:14:22;5.25;;;1.58;;
5555;SDS011;2801;50.972;7.856;2022-09-09T08:16:50;4.95;;;1.30;;
5555;SDS011;2801;50.972;7.856;2022-09-09T08:19:20;4.03;;;1.23;;
5555;SDS011;2801;50.972;7.856;2022-09-09T08:21:47;5.60;;;1.20;;
5555;SDS011;2801;50.972;7.856;2022-09-09T08:24:15;7.22;;;1.00;;
5555;SDS011;2801;50.972;7.856;2022-09-09T08:26:43;6.10;;;1.23;;
5555;SDS011;2801;50.972;7.856;2022-09-09T08:29:13;3.60;;;1.30;;
5555;SDS011;2801;50.972;7.856;2022-09-09T08:31:45;2.83;;;1.20;;
5555;SDS011;2801;50.972;7.856;2022-09-09T08:34:17;4.47;;;1.23;;
5555;SDS011;2801;50.972;7.856;2022-09-09T08:36:48;5.15;;;1.27;;
5555;SDS011;2801;50.972;7.856;2022-09-09T08:39:17;4.40;;;1.10;;
5555;SDS011;2801;50.972;7.856;2022-09-09T08:41:53;8.02;;;1.23;;
5555;SDS011;2801;50.972;7.856;2022-09-09T08:44:39;4.75;;;1.38;;
5555;SDS011;2801;50.972;7.856;2022-09-09T08:50:25;4.38;;;1.20;;
5555;SDS011;2801;50.972;7.856;2022-09-09T08:53:02;3.50;;;1.10;;
5555;SDS011;2801;50.972;7.856;2022-09-09T09:00:56;4.63;;;1.17;;
5555;SDS011;2801;50.972;7.856;2022-09-09T09:09:31;3.65;;;1.15;;
5555;SDS011;2801;50.972;7.856;2022-09-09T09:12:16;7.00;;;1.50;;
5555;SDS011;2801;50.972;7.856;2022-09-09T09:14:49;4.07;;;1.20;;
5555;SDS011;2801;50.972;7.856;2022-09-09T09:19:46;5.20;;;1.25;;
5555;SDS011;2801;50.972;7.856;2022-09-09T09:28:23;3.78;;;0.95;;
5555;SDS011;2801;50.972;7.856;2022-09-09T09:30:58;6.60;;;1.10;;
5555;SDS011;2801;50.972;7.856;2022-09-09T09:36:16;4.13;;;1.10;;
5555;SDS011;2801;50.972;7.856;2022-09-09T09:38:56;4.70;;;0.75;;
5555;SDS011;2801;50.972;7.856;2022-09-09T09:41:46;3.75;;;0.85;;
5555;SDS011;2801;50.972;7.856;2022-09-09T09:44:23;6.07;;;1.10;;
5555;SDS011;2801;50.972;7.856;2022-09-09T09:49:38;6.95;;;1.20;;
5555;SDS011;2801;50.972;7.856;2022-09-09T09:52:06;4.05;;;1.23;;
5555;SDS011;2801;50.972;7.856;2022-09-09T09:54:50;2.88;;;1.13;;
5555;SDS011;2801;50.972;7.856;2022-09-09T09:57:21;3.65;;;1.08;;
5555;SDS011;2801;50.972;7.856;2022-09-09T10:02:48;3.60;;;0.85;;
5555;SDS011;2801;50.972;7.856;2022-09-09T10:05:22;3.42;;;1.10;;
5555;SDS011;2801;50.972;7.856;2022-09-09T10:08:05;2.65;;;1.02;;
5555;SDS011;2801;50.972;7.856;2022-09-09T10:10:46;2.03;;;0.90;;
5555;SDS011;2801;50.972;7.856;2022-09-09T10:19:52;3.42;;;1.08;;
5555;SDS011;2801;50.972;7.856;2022-09-09T10:22:39;1.98;;;0.70;;
5555;SDS011;2801;50.972;7.856;2022-09-09T10:25:31;2.95;;;0.73;;
5555;SDS011;2801;50.972;7.856;2022-09-09T10:31:24;5.32;;;1.00;;
5555;SDS011;2801;50.972;7.856;2022-09-09T10:37:48;2.92;;;0.82;;
5555;SDS011;2801;50.972;7.856;2022-09-09T10:40:58;3.00;;;0.80;;
5555;SDS011;2801;50.972;7.856;2022-09-09T10:56:13;2.10;;;0.40;;
5555;SDS011;2801;50.972;7.856;2022-09-09T10:58:48;6.00;;;1.50;;
5555;SDS011;2801;50.972;7.856;2022-09-09T11:01:33;3.78;;;0.85;;
5555;SDS011;2801;50.972;7.856;2022-09-09T11:04:19;5.05;;;1.10;;
5555;SDS011;2801;50.972;7.856;2022-09-09T11:06:58;6.88;;;0.93;;
5555;SDS011;2801;50.972;7.856;2022-09-09T11:09:38;6.75;;;1.00;;
5555;SDS011;2801;50.972;7.856;2022-09-09T11:12:19;3.47;;;1.08;;
5555;SDS011;2801;50.972;7.856;2022-09-09T11:14:48;5.88;;;1.10;;
5555;SDS011;2801;50.972;7.856;2022-09-09T11:17:26;3.75;;;0.88;;
5555;SDS011;2801;50.972;7.856;2022-09-09T11:20:06;6.28;;;1.67;;
5555;SDS011;2801;50.972;7.856;2022-09-09T11:22:46;4.07;;;0.70;;
5555;SDS011;2801;50.972;7.856;2022-09-09T11:25:37;2.53;;;0.68;;
5555;SDS011;2801;50.972;7.856;2022-09-09T11:40:37;5.03;;;0.90;;
5555;SDS011;2801;50.972;7.856;2022-09-09T11:43:05;5.43;;;1.10;;
5555;SDS011;2801;50.972;7.856;2022-09-09T11:45:53;6.40;;;1.00;;
5555;SDS011;2801;50.972;7.856;2022-09-09T11:51:10;2.42;;;0.75;;
5555;SDS011;2801;50.972;7.856;2022-09-09T11:53:58;4.72;;;0.90;;
5555;SDS011;2801;50.972;7.856;2022-09-09T11:56:49;4.07;;;0.77;;
5555;SDS011;2801;50.972;7.856;2022-09-09T11:59:20;3.38;;;0.90;;
5555;SDS011;2801;50.972;7.856;2022-09-09T12:02:13;2.92;;;0.93;;
5555;SDS011;2801;50.972;7.856;2022-09-09T12:07:33;2.22;;;0.70;;
5555;SDS011;2801;50.972;7.856;2022-09-09T12:10:29;2.72;;;0.70;;
5555;SDS011;2801;50.972;7.856;2022-09-09T12:13:15;1.95;;;0.70;;
5555;SDS011;2801;50.972;7.856;2022-09-09T12:15:50;2.92;;;0.88;;
5555;SDS011;2801;50.972;7.856;2022-09-09T12:18:23;2.03;;;0.55;;
5555;SDS011;2801;50.972;7.856;2022-09-09T12:20:57;0.73;;;0.55;;
5555;SDS011;2801;50.972;7.856;2022-09-09T12:24:18;2.15;;;0.50;;
5555;SDS011;2801;50.972;7.856;2022-09-09T12:26:41;3.28;;;0.75;;
5555;SDS011;2801;50.972;7.856;2022-09-09T12:32:29;2.35;;;0.82;;
5555;SDS011;2801;50.972;7.856;2022-09-09T12:34:59;1.75;;;0.73;;
5555;SDS011;2801;50.972;7.856;2022-09-09T12:40:28;2.25;;;0.68;;
5555;SDS011;2801;50.972;7.856;2022-09-09T12:42:58;2.42;;;0.68;;
5555;SDS011;2801;50.972;7.856;2022-09-09T12:45:31;3.40;;;1.00;;
5555;SDS011;2801;50.972;7.856;2022-09-09T12:50:37;3.08;;;0.70;;
5555;SDS011;2801;50.972;7.856;2022-09-09T12:53:25;3.60;;;0.70;;
5555;SDS011;2801;50.972;7.856;2022-09-09T12:56:03;2.90;;;0.77;;
5555;SDS011;2801;50.972;7.856;2022-09-09T12:58:36;3.95;;;0.75;;
5555;SDS011;2801;50.972;7.856;2022-09-09T13:01:17;3.80;;;0.68;;
5555;SDS011;2801;50.972;7.856;2022-09-09T13:03:54;5.38;;;0.90;;
5555;SDS011;2801;50.972;7.856;2022-09-09T13:06:26;2.92;;;0.70;;
5555;SDS011;2801;50.972;7.856;2022-09-09T13:09:00;12.90;;;1.60;;
5555;SDS011;2801;50.972;7.856;2022-09-09T13:11:35;3.38;;;0.85;;
5555;SDS011;2801;50.972;7.856;2022-09-09T13:14:16;4.78;;;0.60;;
5555;SDS011;2801;50.972;7.856;2022-09-09T13:17:04;2.28;;;0.50;;
5555;SDS011;2801;50.972;7.856;2022-09-09T13:19:36;2.08;;;0.60;;
5555;SDS011;2801;50.972;7.856;2022-09-09T13:22:39;2.72;;;1.42;;
5555;SDS011;2801;50.972;7.856;2022-09-09T13:25:06;4.55;;;0.65;;
5555;SDS011;2801;50.972;7.856;2022-09-09T13:27:38;2.97;;;0.50;;
5555;SDS011;2801;50.972;7.856;2022-09-09T13:35:47;1.55;;;0.47;;
5555;SDS011;2801;50.972;7.856;2022-09-09T13:38:32;1.25;;;0.50;;
5555;SDS011;2801;50.972;7.856;2022-09-09T13:41:04;2.03;;;0.38;;
5555;SDS011;2801;50.972;7.856;2022-09-09T13:43:43;1.00;;;0.43;;
5555;SDS011;2801;50.972;7.856;2022-09-09T13:46:24;4.53;;;0.70;;
5555;SDS011;2801;50.972;7.856;2022-09-09T13:51:40;2.50;;;0.47;;
5555;SDS011;2801;50.972;7.856;2022-09-09T13:54:13;2.17;;;0.47;;
5555;SDS011;2801;50.972;7.856;2022-09-09T13:56:44;1.95;;;0.50;;
5555;SDS011;2801;50.972;7.856;2022-09-09T13:59:13;1.33;;;0.50;;
5555;SDS011;2801;50.972;7.856;2022-09-09T14:01:45;1.33;;;0.40;;
5555;SDS011;2801;50.972;7.856;2022-09-09T14:04:12;1.63;;;0.60;;
5555;SDS011;2801;50.972;7.856;2022-09-09T14:06:39;1.90;;;0.30;;
5555;SDS011;2801;50.972;7.856;2022-09-09T14:09:07;1.50;;;0.55;;
5555;SDS011;2801;50.972;7.856;2022-09-09T14:11:38;2.25;;;0.50;;
5555;SDS011;2801;50.972;7.856;2022-09-09T14:14:06;2.03;;;0.50;;
5555;SDS011;2801;50.972;7.856;2022-09-09T14:16:33;2.17;;;0.57;;
5555;SDS011;2801;50.972;7.856;2022-09-09T14:19:00;1.98;;;0.50;;
5555;SDS011;2801;50.972;7.856;2022-09-09T14:21:27;5.30;;;0.90;;
5555;SDS011;2801;50.972;7.856;2022-09-09T14:23:54;2.10;;;0.60;;
5555;SDS011;2801;50.972;7.856;2022-09-09T14:26:24;4.07;;;0.50;;
5555;SDS011;2801;50.972;7.856;2022-09-09T14:28:52;3.22;;;0.50;;
5555;SDS011;2801;50.972;7.856;2022-09-09T14:31:21;3.67;;;0.60;;
5555;SDS011;2801;50.972;7.856;2022-09-09T14:33:49;2.63;;;0.80;;
5555;SDS011;2801;50.972;7.856;2022-09-09T14:36:17;3.60;;;0.60;;
5555;SDS011;2801;50.972;7.856;2022-09-09T14:38:44;3.95;;;0.73;;
5555;SDS011;2801;50.972;7.856;2022-09-09T14:41:12;3.78;;;0.60;;
5555;SDS011;2801;50.972;7.856;2022-09-09T14:43:45;1.33;;;0.57;;
5555;SDS011;2801;50.972;7.856;2022-09-09T14:46:13;1.15;;;0.50;;
5555;SDS011;2801;50.972;7.856;2022-09-09T14:48:42;5.30;;;0.70;;
5555;SDS011;2801;50.972;7.856;2022-09-09T14:51:14;0.98;;;0.50;;
5555;SDS011;2801;50.972;7.856;2022-09-09T14:53:50;1.55;;;0.50;;
5555;SDS011;2801;50.972;7.856;2022-09-09T14:56:20;3.17;;;0.73;;
5555;SDS011;2801;50.972;7.856;2022-09-09T14:58:52;0.75;;;0.40;;
5555;SDS011;2801;50.972;7.856;2022-09-09T15:01:21;3.17;;;1.10;;
5555;SDS011;2801;50.972;7.856;2022-09-09T15:03:51;2.13;;;0.60;;
5555;SDS011;2801;50.972;7.856;2022-09-09T15:06:20;1.77;;;0.52;;
5555;SDS011;2801;50.972;7.856;2022-09-09T15:08:50;1.08;;;0.50;;
5555;SDS011;2801;50.972;7.856;2022-09-09T15:11:19;3.95;;;0.60;;
5555;SDS011;2801;50.972;7.856;2022-09-09T15:13:50;2.58;;;0.60;;
5555;SDS011;2801;50.972;7.856;2022-09-09T15:16:21;2.45;;;0.70;;
5555;SDS011;2801;50.972;7.856;2022-09-09T15:18:52;0.70;;;0.52;;
5555;SDS011;2801;50.972;7.856;2022-09-09T15:21:22;4.43;;;0.88;;
5555;SDS011;2801;50.972;7.856;2022-09-09T15:23:52;3.70;;;0.68;;
5555;SDS011;2801;50.972;7.856;2022-09-09T15:26:20;1.92;;;0.60;;
5555;SDS011;2801;50.972;7.856;2022-09-09T15:28:48;4.63;;;0.80;;
5555;SDS011;2801;50.972;7.856;2022-09-09T15:31:17;1.95;;;0.60;;
5555;SDS011;2801;50.972;7.856;2022-09-09T15:34:00;2.58;;;0.52;;
5555;SDS011;2801;50.972;7.856;2022-09-09T15:36:36;1.75;;;0.57;;
5555;SDS011;2801;50.972;7.856;2022-09-09T15:39:12;2.55;;;0.63;;
5555;SDS011;2801;50.972;7.856;2022-09-09T15:41:43;1.63;;;0.60;;
5555;SDS011;2801;50.972;7.856;2022-09-09T15:44:14;2.55;;;0.52;;
5555;SDS011;2801;50.972;7.856;2022-09-09T15:46:43;2.00;;;0.70;;
5555;SDS011;2801;50.972;7.856;2022-09-09T15:49:14;1.70;;;0.60;;
5555;SDS011;2801;50.972;7.856;2022-09-09T15:51:44;2.25;;;0.50;;
5555;SDS011;2801;50.972;7.856;2022-09-09T15:54:14;1.13;;;0.50;;
5555;SDS011;2801;50.972;7.856;2022-09-09T15:56:44;1.13;;;0.50;;
5555;SDS011;2801;50.972;7.856;2022-09-09T15:59:25;2.35;;;0.60;;
5555;SDS011;2801;50.972;7.856;2022-09-09T16:01:55;1.65;;;0.88;;
5555;SDS011;2801;50.972;7.856;2022-09-09T16:04:24;2.17;;;0.77;;
5555;SDS011;2801;50.972;7.856;2022-09-09T16:06:59;1.98;;;0.90;;
5555;SDS011;2801;50.972;7.856;2022-09-09T16:09:33;1.67;;;0.75;;
5555;SDS011;2801;50.972;7.856;2022-09-09T16:12:01;2.00;;;0.60;;
5555;SDS011;2801;50.972;7.856;2022-09-09T16:14:33;2.05;;;0.77;;
5555;SDS011;2801;50.972;7.856;2022-09-09T16:17:02;2.72;;;0.80;;
5555;SDS011;2801;50.972;7.856;2022-09-09T16:19:32;1.70;;;0.52;;
5555;SDS011;2801;50.972;7.856;2022-09-09T16:22:00;2.17;;;0.80;;
5555;SDS011;2801;50.972;7.856;2022-09-09T16:24:28;0.93;;;0.73;;
5555;SDS011;2801;50.972;7.856;2022-09-09T16:26:55;1.13;;;0.68;;
5555;SDS011;2801;50.972;7.856;2022-09-09T16:29:22;2.85;;;0.80;;
5555;SDS011;2801;50.972;7.856;2022-09-09T16:31:50;1.95;;;0.60;;
5555;SDS011;2801;50.972;7.856;2022-09-09T16:34:18;3.00;;;0.70;;
5555;SDS011;2801;50.972;7.856;2022-09-09T16:36:46;1.33;;;0.60;;
5555;SDS011;2801;50.972;7.856;2022-09-09T16:39:15;2.80;;;0.82;;
5555;SDS011;2801;50.972;7.856;2022-09-09T16:41:46;2.95;;;0.80;;
5555;SDS011;2801;50.972;7.856;2022-09-09T16:44:15;2.80;;;0.70;;
5555;SDS011;2801;50.972;7.856;2022-09-09T16:46:45;2.70;;;0.60;;
5555;SDS011;2801;50.972;7.856;2022-09-09T16:49:15;3.78;;;0.70;;
5555;SDS011;2801;50.972;7.856;2022-09-09T16:51:43;2.92;;;0.80;;
5555;SDS011;2801;50.972;7.856;2022-09-09T16:54:14;2.13;;;0.73;;
5555;SDS011;2801;50.972;7.856;2022-09-09T16:56:43;2.83;;;0.70;;
5555;SDS011;2801;50.972;7.856;2022-09-09T16:59:16;0.93;;;0.55;;
5555;SDS011;2801;50.972;7.856;2022-09-09T17:01:46;2.15;;;1.05;;
5555;SDS011;2801;50.972;7.856;2022-09-09T17:04:17;1.45;;;0.60;;
5555;SDS011;2801;50.972;7.856;2022-09-09T17:06:52;2.72;;;0.73;;
5555;SDS011;2801;50.972;7.856;2022-09-09T17:09:21;1.08;;;0.60;;
5555;SDS011;2801;50.972;7.856;2022-09-09T17:11:49;1.52;;;0.70;;
5555;SDS011;2801;50.972;7.856;2022-09-09T17:14:19;1.30;;;0.60;;
5555;SDS011;2801;50.972;7.856;2022-09-09T17:16:47;1.20;;;0.57;;
5555;SDS011;2801;50.972;7.856;2022-09-09T17:19:14;7.65;;;1.27;;
5555;SDS011;2801;50.972;7.856;2022-09-09T17:21:42;1.02;;;0.40;;
5555;SDS011;2801;50.972;7.856;2022-09-09T17:24:29;0.73;;;0.40;;
5555;SDS011;2801;50.972;7.856;2022-09-09T17:26:56;4.20;;;0.60;;
5555;SDS011;2801;50.972;7.856;2022-09-09T17:29:24;2.03;;;0.50;;
5555;SDS011;2801;50.972;7.856;2022-09-09T17:31:51;0.88;;;0.50;;
5555;SDS011;2801;50.972;7.856;2022-09-09T17:34:18;4.40;;;0.70;;
5555;SDS011;2801;50.972;7.856;2022-09-09T17:36:45;2.72;;;0.50;;
5555;SDS011;2801;50.972;7.856;2022-09-09T17:39:12;2.50;;;0.70;;
5555;SDS011;2801;50.972;7.856;2022-09-09T17:41:39;3.55;;;0.70;;
5555;SDS011;2801;50.972;7.856;2022-09-09T17:44:06;1.52;;;0.50;;
5555;SDS011;2801;50.972;7.856;2022-09-09T17:46:36;1.13;;;0.60;;
5555;SDS011;2801;50.972;7.856;2022-09-09T17:49:09;0.82;;;0.50;;
5555;SDS011;2801;50.972;7.856;2022-09-09T17:51:43;1.67;;;0.52;;
5555;SDS011;2801;50.972;7.856;2022-09-09T17:54:12;2.63;;;1.00;;
5555;SDS011;2801;50.972;7.856;2022-09-09T17:56:43;1.48;;;0.85;;
5555;SDS011;2801;50.972;7.856;2022-09-09T17:59:13;1.83;;;0.80;;
5555;SDS011;2801;50.972;7.856;2022-09-09T18:01:43;3.40;;;1.10;;